Time;durP1;ratioP1;P1;durP2;ratioP2;P2;SDS_P1;SDS_P2;PMS_P1;PMS_P2;Temp;Humidity;BMP_temperature;BMP_pressure;BME280_temperature;BME280_humidity;BME280_pressure;Samples;Min_cycle;Max_cycle;Signal;HPM_P1;HPM_P2
2022/11/07 00:01:39;;;;;;;;;;;10.30;99.90;;;;;;4925166;28;210832;-69
2022/11/07 00:04:05;;;;;;;;;;;10.40;99.90;;;;;;4998372;28;19941;-69
2022/11/07 00:06:31;;;;;;;;;;;10.40;99.90;;;;;;4925076;28;211270;-69
2022/11/07 00:08:57;;;;;;;;;;;10.40;99.90;;;;;;5001873;28;19929;-69
2022/11/07 00:11:23;;;;;;;;;;;10.40;99.90;;;;;;4930597;28;207474;-69
2022/11/07 00:13:49;;;;;;;;;;;10.50;99.90;;;;;;5002841;28;20066;-68
2022/11/07 00:16:15;;;;;;;;;;;10.50;99.90;;;;;;4956975;28;208292;-69
2022/11/07 00:18:42;;;;;;;;;;;10.50;99.90;;;;;;4979034;28;223096;-69
2022/11/07 00:21:08;;;;;;;;;;;10.60;99.90;;;;;;4970076;28;19932;-69
2022/11/07 00:23:35;;;;;;;;;;;10.50;99.90;;;;;;4949036;28;209372;-69
2022/11/07 00:26:02;;;;;;;;;;;10.60;99.90;;;;;;4987119;28;19934;-69
2022/11/07 00:28:28;;;;;;;;;;;10.60;99.90;;;;;;4946502;28;215661;-69
2022/11/07 00:30:56;;;;;;;;;;;10.60;99.90;;;;;;4968879;28;19994;-69
2022/11/07 00:33:22;;;;;;;;;;;10.70;99.90;;;;;;4937001;28;207851;-69
2022/11/07 00:35:48;;;;;;;;;;;10.70;99.90;;;;;;4976018;28;19929;-69
2022/11/07 00:38:14;;;;;;;;;;;10.70;99.90;;;;;;4965115;28;218958;-70
2022/11/07 00:40:40;;;;;;;;;;;10.70;99.90;;;;;;4971329;28;19926;-69
2022/11/07 00:43:06;;;;;;;;;;;10.70;99.90;;;;;;4970362;28;123889;-70
2022/11/07 00:45:32;;;;;;;;;;;10.70;99.90;;;;;;4973879;28;20368;-68
2022/11/07 00:47:58;;;;;;;;;;;10.80;99.90;;;;;;4943262;28;258237;-69
2022/11/07 00:50:24;;;;;;;;;;;10.80;99.90;;;;;;4958840;28;19923;-69
2022/11/07 00:52:50;;;;;;;;;;;10.80;99.90;;;;;;4945956;28;207934;-69
2022/11/07 00:55:16;;;;;;;;;;;10.80;99.90;;;;;;4959569;28;20029;-70
2022/11/07 00:57:42;;;;;;;;;;;10.80;99.90;;;;;;4938821;28;206891;-69
2022/11/07 01:00:08;;;;;;;;;;;10.80;99.90;;;;;;4973545;28;20387;-69
2022/11/07 01:02:34;;;;;;;;;;;10.90;99.90;;;;;;4935324;28;203657;-70
2022/11/07 01:05:09;;;;;;;;;;;10.90;99.90;;;;;;4980841;28;19921;-69
2022/11/07 01:07:36;;;;;;;;;;;10.90;99.90;;;;;;4957925;28;168135;-69
2022/11/07 01:10:03;;;;;;;;;;;10.90;99.90;;;;;;4974274;28;19933;-69
2022/11/07 01:12:31;;;;;;;;;;;11.00;99.90;;;;;;4950329;28;220220;-69
2022/11/07 01:14:57;;;;;;;;;;;11.00;99.90;;;;;;4986725;28;19922;-70
2022/11/07 01:17:23;;;;;;;;;;;11.00;99.90;;;;;;4938804;28;221222;-70
2022/11/07 01:19:49;;;;;;;;;;;11.00;99.90;;;;;;4976272;28;19923;-70
2022/11/07 01:22:15;;;;;;;;;;;11.00;99.90;;;;;;4942623;28;207934;-70
2022/11/07 01:24:41;;;;;;;;;;;11.00;99.90;;;;;;4985997;28;19930;-70
2022/11/07 01:27:07;;;;;;;;;;;11.00;99.90;;;;;;4924823;28;217080;-69
2022/11/07 01:29:33;;;;;;;;;;;10.90;99.90;;;;;;4966210;28;20036;-70
2022/11/07 01:31:59;;;;;;;;;;;11.00;99.90;;;;;;4958716;28;183668;-69
2022/11/07 01:34:25;;;;;;;;;;;11.00;99.90;;;;;;4999568;28;19922;-69
2022/11/07 01:36:52;;;;;;;;;;;11.00;99.90;;;;;;4933212;28;215758;-70
2022/11/07 01:39:18;;;;;;;;;;;11.00;99.90;;;;;;4994796;28;20340;-70
2022/11/07 01:41:44;;;;;;;;;;;11.00;99.90;;;;;;4924333;28;218503;-69
2022/11/07 01:44:10;;;;;;;;;;;11.00;99.90;;;;;;5003700;28;20284;-70
2022/11/07 01:46:36;;;;;;;;;;;11.00;99.90;;;;;;4952464;28;210196;-70
2022/11/07 01:49:11;;;;;;;;;;;11.00;99.90;;;;;;5010813;28;20458;-69
2022/11/07 01:51:39;;;;;;;;;;;11.00;99.90;;;;;;4943877;28;139946;-69
2022/11/07 01:54:05;;;;;;;;;;;11.00;99.90;;;;;;4993667;28;19922;-70
2022/11/07 01:56:34;;;;;;;;;;;11.00;99.90;;;;;;4926949;28;209730;-69
2022/11/07 01:59:00;;;;;;;;;;;11.00;99.90;;;;;;4994395;28;19937;-68
2022/11/07 02:01:26;;;;;;;;;;;11.10;99.90;;;;;;4927254;28;218863;-70
2022/11/07 02:03:53;;;;;;;;;;;11.10;99.90;;;;;;4969220;28;19926;-69
2022/11/07 02:06:39;;;;;;;;;;;11.10;99.90;;;;;;4956908;28;206734;-70
2022/11/07 02:09:05;;;;;;;;;;;11.00;99.90;;;;;;4958558;28;19933;-69
2022/11/07 02:11:32;;;;;;;;;;;10.90;99.90;;;;;;4899267;28;557032;-70
2022/11/07 02:13:58;;;;;;;;;;;10.90;99.90;;;;;;4964965;28;19933;-70
2022/11/07 02:16:26;;;;;;;;;;;10.80;99.90;;;;;;4920347;28;235307;-70
2022/11/07 02:18:53;;;;;;;;;;;10.80;99.90;;;;;;4997714;28;19926;-70
2022/11/07 02:21:27;;;;;;;;;;;10.80;99.90;;;;;;4958370;28;210142;-68
2022/11/07 02:23:56;;;;;;;;;;;10.70;99.90;;;;;;4977047;28;19922;-69
2022/11/07 02:26:23;;;;;;;;;;;10.80;99.90;;;;;;4948224;28;209011;-69
2022/11/07 02:28:51;;;;;;;;;;;10.70;99.90;;;;;;5001298;28;19930;-70
2022/11/07 02:31:17;;;;;;;;;;;10.70;99.90;;;;;;4956939;28;218044;-70
2022/11/07 02:33:43;;;;;;;;;;;10.80;99.90;;;;;;4985998;28;39351;-68
2022/11/07 02:36:14;;;;;;;;;;;10.80;99.90;;;;;;4968882;28;19929;-69
2022/11/07 02:38:39;;;;;;;;;;;10.80;99.90;;;;;;4952397;28;206003;-69
2022/11/07 02:41:08;;;;;;;;;;;10.80;99.90;;;;;;4971348;28;19926;-69
2022/11/07 02:43:36;;;;;;;;;;;10.80;99.90;;;;;;4966639;28;177018;-70
2022/11/07 02:46:04;;;;;;;;;;;10.90;99.90;;;;;;4982455;28;19930;-71
2022/11/07 02:48:31;;;;;;;;;;;10.80;99.90;;;;;;4958518;28;177169;-70
2022/11/07 02:50:57;;;;;;;;;;;10.90;99.90;;;;;;4996692;28;20378;-70
2022/11/07 02:53:23;;;;;;;;;;;10.90;99.90;;;;;;4967406;28;207114;-70
2022/11/07 02:55:49;;;;;;;;;;;11.00;99.90;;;;;;4981514;28;19930;-70
2022/11/07 02:58:15;;;;;;;;;;;11.00;99.90;;;;;;4929925;28;204389;-70
2022/11/07 03:00:41;;;;;;;;;;;10.90;99.90;;;;;;4950267;28;19930;-69
2022/11/07 03:03:07;;;;;;;;;;;10.90;99.90;;;;;;4940614;28;213603;-69
2022/11/07 03:05:33;;;;;;;;;;;10.90;99.90;;;;;;4972061;28;21549;-69
2022/11/07 03:07:59;;;;;;;;;;;10.90;99.90;;;;;;4946479;28;206461;-69
2022/11/07 03:10:25;;;;;;;;;;;10.90;99.90;;;;;;4967590;28;19984;-69
2022/11/07 03:12:51;;;;;;;;;;;10.90;99.90;;;;;;4948361;28;207624;-70
2022/11/07 03:15:17;;;;;;;;;;;10.80;99.90;;;;;;4984476;28;19969;-70
2022/11/07 03:17:44;;;;;;;;;;;10.80;99.90;;;;;;4956865;28;211287;-71
2022/11/07 03:20:11;;;;;;;;;;;10.80;99.90;;;;;;4985863;28;19922;-70
2022/11/07 03:22:37;;;;;;;;;;;10.80;99.90;;;;;;4954326;28;207064;-70
2022/11/07 03:25:04;;;;;;;;;;;10.80;99.90;;;;;;4989575;28;19926;-67
2022/11/07 03:27:31;;;;;;;;;;;10.80;99.90;;;;;;4918801;28;206927;-68
2022/11/07 03:29:57;;;;;;;;;;;10.80;99.90;;;;;;4974914;28;19922;-67
2022/11/07 03:32:23;;;;;;;;;;;10.80;99.90;;;;;;4921352;28;218609;-69
2022/11/07 03:34:49;;;;;;;;;;;10.70;99.90;;;;;;4958779;28;20348;-69
2022/11/07 03:37:15;;;;;;;;;;;10.70;99.90;;;;;;4928096;28;206207;-69
2022/11/07 03:39:41;;;;;;;;;;;10.70;99.90;;;;;;4978806;28;19950;-69
2022/11/07 03:42:07;;;;;;;;;;;10.70;99.90;;;;;;4943854;28;205023;-70
2022/11/07 03:44:33;;;;;;;;;;;10.70;99.90;;;;;;4975765;28;19930;-70
2022/11/07 03:46:59;;;;;;;;;;;10.60;99.90;;;;;;4923040;28;225512;-70
2022/11/07 03:49:25;;;;;;;;;;;10.60;99.90;;;;;;4999754;28;19997;-69
2022/11/07 03:51:51;;;;;;;;;;;10.60;99.90;;;;;;4930588;28;209945;-68
2022/11/07 03:54:17;;;;;;;;;;;10.60;99.90;;;;;;4960185;28;19933;-69
2022/11/07 03:56:43;;;;;;;;;;;10.70;99.90;;;;;;4951529;28;138709;-68
2022/11/07 03:59:09;;;;;;;;;;;10.70;99.90;;;;;;5010964;28;19933;-68
2022/11/07 04:01:35;;;;;;;;;;;10.70;99.90;;;;;;4915458;28;213247;-68
2022/11/07 04:04:01;;;;;;;;;;;10.70;99.90;;;;;;4997409;28;19937;-69
2022/11/07 04:06:27;;;;;;;;;;;10.70;99.90;;;;;;4931914;28;207097;-70
2022/11/07 04:08:53;;;;;;;;;;;10.70;99.90;;;;;;4998770;28;19926;-69
2022/11/07 04:19:32;;;;;;;;;;;10.60;99.90;;;;;;4973992;28;19926;-68
2022/11/07 04:21:58;;;;;;;;;;;10.60;99.90;;;;;;4952627;28;141141;-69
2022/11/07 04:24:24;;;;;;;;;;;10.60;99.90;;;;;;5002825;28;19985;-69
2022/11/07 04:29:34;;;;;;;;;;;10.60;99.90;;;;;;4995694;28;19923;-69
2022/11/07 04:32:00;;;;;;;;;;;10.60;99.90;;;;;;4932250;28;213972;-70
2022/11/07 04:34:26;;;;;;;;;;;10.60;99.90;;;;;;5006846;28;20051;-69
2022/11/07 04:36:52;;;;;;;;;;;10.60;99.90;;;;;;4940172;28;240435;-68
2022/11/07 04:39:18;;;;;;;;;;;10.60;99.90;;;;;;5007192;28;19937;-69
2022/11/07 04:41:44;;;;;;;;;;;10.60;99.90;;;;;;4959228;28;208881;-69
2022/11/07 04:44:12;;;;;;;;;;;10.60;99.90;;;;;;4990037;28;20362;-69
2022/11/07 04:46:38;;;;;;;;;;;10.70;99.90;;;;;;4913478;28;207522;-69
2022/11/07 04:49:04;;;;;;;;;;;10.70;99.90;;;;;;5007422;28;19936;-70
2022/11/07 04:51:30;;;;;;;;;;;10.70;99.90;;;;;;4923116;28;208986;-69
2022/11/07 04:53:55;;;;;;;;;;;10.70;99.90;;;;;;5012387;28;19933;-70
2022/11/07 04:56:21;;;;;;;;;;;10.60;99.90;;;;;;4940367;28;206189;-70
2022/11/07 04:58:47;;;;;;;;;;;10.70;99.90;;;;;;4957614;28;19926;-69
2022/11/07 05:01:13;;;;;;;;;;;10.70;99.90;;;;;;4964526;28;214709;-69
2022/11/07 05:03:39;;;;;;;;;;;10.70;99.90;;;;;;4940310;28;208003;-68
2022/11/07 05:06:05;;;;;;;;;;;10.70;99.90;;;;;;4972879;28;19941;-69
2022/11/07 05:08:31;;;;;;;;;;;10.70;99.90;;;;;;4964677;28;209908;-69
2022/11/07 05:10:57;;;;;;;;;;;10.70;99.90;;;;;;4998977;28;19945;-70
2022/11/07 05:13:23;;;;;;;;;;;10.70;99.90;;;;;;4973087;28;167358;-69
2022/11/07 05:15:49;;;;;;;;;;;10.70;99.90;;;;;;5002312;28;19977;-68
2022/11/07 05:18:15;;;;;;;;;;;10.70;99.90;;;;;;4956530;28;207152;-69
2022/11/07 05:20:41;;;;;;;;;;;10.70;99.90;;;;;;4978537;28;19925;-69
2022/11/07 05:23:11;;;;;;;;;;;10.70;99.90;;;;;;4964885;28;203308;-69
2022/11/07 05:25:38;;;;;;;;;;;10.60;99.90;;;;;;4971812;28;19922;-68
2022/11/07 05:28:04;;;;;;;;;;;10.70;99.90;;;;;;4961272;28;204456;-69
2022/11/07 05:30:30;;;;;;;;;;;10.70;99.90;;;;;;4972544;28;19945;-69
2022/11/07 05:32:56;;;;;;;;;;;10.60;99.90;;;;;;4953727;28;191003;-70
2022/11/07 05:35:22;;;;;;;;;;;10.60;99.90;;;;;;4997127;28;19933;-70
2022/11/07 05:37:48;;;;;;;;;;;10.60;99.90;;;;;;4941045;28;205868;-70
2022/11/07 05:40:14;;;;;;;;;;;10.70;99.90;;;;;;4980122;28;19933;-69
2022/11/07 05:42:40;;;;;;;;;;;10.60;99.90;;;;;;4948146;28;209271;-70
2022/11/07 05:45:06;;;;;;;;;;;10.70;99.90;;;;;;4983413;28;19930;-70
2022/11/07 05:47:32;;;;;;;;;;;10.70;99.90;;;;;;4942645;28;233923;-69
2022/11/07 05:49:58;;;;;;;;;;;10.70;99.90;;;;;;4977499;28;19930;-69
2022/11/07 05:52:24;;;;;;;;;;;10.70;99.90;;;;;;4923250;28;285878;-70
2022/11/07 05:54:50;;;;;;;;;;;10.80;99.90;;;;;;4981250;28;19929;-69
2022/11/07 05:57:16;;;;;;;;;;;10.70;99.90;;;;;;4936587;28;204672;-69
2022/11/07 05:59:42;;;;;;;;;;;10.80;99.90;;;;;;4983520;28;19981;-69
2022/11/07 06:02:08;;;;;;;;;;;10.70;99.90;;;;;;4927270;28;206830;-70
2022/11/07 06:04:34;;;;;;;;;;;10.80;99.90;;;;;;4996144;28;19930;-69
2022/11/07 06:07:00;;;;;;;;;;;10.80;99.90;;;;;;4929672;28;222211;-69
2022/11/07 06:09:26;;;;;;;;;;;10.80;99.90;;;;;;4990347;28;19993;-69
2022/11/07 06:11:52;;;;;;;;;;;10.70;99.90;;;;;;4939867;28;210017;-70
2022/11/07 06:14:17;;;;;;;;;;;10.70;99.90;;;;;;5016196;28;19928;-69
2022/11/07 06:16:43;;;;;;;;;;;10.70;99.90;;;;;;4962531;28;134731;-69
2022/11/07 06:19:09;;;;;;;;;;;10.70;99.90;;;;;;4988584;28;19929;-69
2022/11/07 06:21:35;;;;;;;;;;;10.70;99.90;;;;;;4933913;28;209051;-70
2022/11/07 06:24:01;;;;;;;;;;;10.70;99.90;;;;;;4993901;28;20004;-70
2022/11/07 06:26:27;;;;;;;;;;;10.70;99.90;;;;;;4921300;28;208129;-70
2022/11/07 06:28:53;;;;;;;;;;;10.70;99.90;;;;;;5003135;28;20300;-69
2022/11/07 06:31:19;;;;;;;;;;;10.70;99.90;;;;;;4953454;28;207857;-69
2022/11/07 06:33:47;;;;;;;;;;;10.70;99.90;;;;;;4965873;28;19929;-70
2022/11/07 06:36:13;;;;;;;;;;;10.70;99.90;;;;;;4975287;28;211038;-69
2022/11/07 06:38:39;;;;;;;;;;;10.70;99.90;;;;;;4966541;28;169245;-69
2022/11/07 06:41:06;;;;;;;;;;;10.70;99.90;;;;;;4976600;28;19929;-69
2022/11/07 06:43:33;;;;;;;;;;;10.70;99.90;;;;;;4939610;28;156334;-69
2022/11/07 06:46:01;;;;;;;;;;;10.70;99.90;;;;;;4980207;28;19934;-68
2022/11/07 06:48:30;;;;;;;;;;;10.70;99.90;;;;;;4975381;28;175692;-69
2022/11/07 06:50:56;;;;;;;;;;;10.80;99.90;;;;;;5004901;28;19926;-69
2022/11/07 06:53:22;;;;;;;;;;;10.70;99.90;;;;;;4962801;28;208510;-68
2022/11/07 06:55:48;;;;;;;;;;;10.70;99.90;;;;;;4978356;28;19926;-68
2022/11/07 06:58:14;;;;;;;;;;;10.70;99.90;;;;;;4940974;28;217119;-69
2022/11/07 07:00:40;;;;;;;;;;;10.60;99.90;;;;;;5008184;28;20053;-69
2022/11/07 07:03:06;;;;;;;;;;;10.60;99.90;;;;;;4951498;28;207627;-69
2022/11/07 07:05:33;;;;;;;;;;;10.60;99.90;;;;;;4973301;28;19926;-68
2022/11/07 07:07:59;;;;;;;;;;;10.60;99.90;;;;;;4933557;28;209285;-69
2022/11/07 07:10:25;;;;;;;;;;;10.60;99.90;;;;;;4965903;28;20098;-68
2022/11/07 07:12:52;;;;;;;;;;;10.60;99.90;;;;;;4947660;28;113948;-68
2022/11/07 07:15:18;;;;;;;;;;;10.60;99.90;;;;;;4972573;28;19930;-69
2022/11/07 07:17:43;;;;;;;;;;;10.60;99.90;;;;;;4950921;28;207151;-68
2022/11/07 07:20:10;;;;;;;;;;;10.60;99.90;;;;;;4982498;28;19980;-68
2022/11/07 07:22:35;;;;;;;;;;;10.60;99.90;;;;;;4933321;28;196235;-68
2022/11/07 07:25:01;;;;;;;;;;;10.60;99.90;;;;;;4965220;28;19922;-69
2022/11/07 07:27:27;;;;;;;;;;;10.60;99.90;;;;;;4949609;28;208345;-69
2022/11/07 07:29:53;;;;;;;;;;;10.60;99.90;;;;;;4992969;28;20021;-68
2022/11/07 07:32:20;;;;;;;;;;;10.60;99.90;;;;;;4946568;28;207155;-69
2022/11/07 07:34:46;;;;;;;;;;;10.60;99.90;;;;;;4998028;28;19934;-69
2022/11/07 07:37:11;;;;;;;;;;;10.60;99.90;;;;;;4963801;28;122322;-69
2022/11/07 07:39:37;;;;;;;;;;;10.60;99.90;;;;;;4989017;28;21406;-69
2022/11/07 07:42:03;;;;;;;;;;;10.70;99.90;;;;;;4943074;28;205955;-69
2022/11/07 07:44:29;;;;;;;;;;;10.70;99.90;;;;;;4991918;28;19922;-70
2022/11/07 07:46:55;;;;;;;;;;;10.70;99.90;;;;;;4949568;28;209403;-68
2022/11/07 07:49:21;;;;;;;;;;;10.70;99.90;;;;;;4939536;29;19926;-69
2022/11/07 07:51:47;;;;;;;;;;;10.60;99.90;;;;;;4930339;28;202722;-68
2022/11/07 07:54:13;;;;;;;;;;;10.60;99.90;;;;;;4986634;28;20374;-69
2022/11/07 07:56:39;;;;;;;;;;;10.60;99.90;;;;;;4927833;28;208274;-67
2022/11/07 07:59:05;;;;;;;;;;;10.60;99.90;;;;;;5014019;28;20305;-68
2022/11/07 08:01:31;;;;;;;;;;;10.70;99.90;;;;;;4923538;28;207698;-67
2022/11/07 08:03:57;;;;;;;;;;;10.60;99.90;;;;;;5018676;28;19928;-67
2022/11/07 08:06:23;;;;;;;;;;;10.70;99.90;;;;;;4932152;28;209882;-67
2022/11/07 08:08:49;;;;;;;;;;;10.70;99.90;;;;;;5001414;28;19934;-67
2022/11/07 08:11:15;;;;;;;;;;;10.70;99.90;;;;;;4979637;28;211878;-67
2022/11/07 08:13:40;;;;;;;;;;;10.70;99.90;;;;;;4959017;28;150398;-67
2022/11/07 08:16:07;;;;;;;;;;;10.70;99.90;;;;;;4978499;28;19929;-67
2022/11/07 08:18:35;;;;;;;;;;;10.80;99.90;;;;;;4955136;28;212283;-67
2022/11/07 08:21:01;;;;;;;;;;;10.80;99.90;;;;;;4973373;28;19922;-67
2022/11/07 08:23:27;;;;;;;;;;;10.80;99.90;;;;;;4953252;28;214487;-67
2022/11/07 08:25:54;;;;;;;;;;;10.80;99.90;;;;;;4977463;28;19973;-68
2022/11/07 08:28:21;;;;;;;;;;;10.90;99.90;;;;;;4957099;28;209790;-68
2022/11/07 08:31:01;;;;;;;;;;;10.90;99.90;;;;;;5001310;28;19926;-68
2022/11/07 08:33:27;;;;;;;;;;;10.90;99.90;;;;;;4968867;28;212439;-68
2022/11/07 08:35:54;;;;;;;;;;;11.00;99.90;;;;;;4990747;28;20391;-68
2022/11/07 08:38:20;;;;;;;;;;;11.10;99.90;;;;;;4972821;28;209473;-68
2022/11/07 08:40:47;;;;;;;;;;;11.10;99.90;;;;;;4973153;28;20279;-68
2022/11/07 08:43:15;;;;;;;;;;;11.10;99.90;;;;;;4956220;28;194151;-68
2022/11/07 08:45:42;;;;;;;;;;;11.20;99.90;;;;;;4969603;28;19934;-68
2022/11/07 08:48:08;;;;;;;;;;;11.20;99.90;;;;;;4957866;28;162052;-68
2022/11/07 08:50:34;;;;;;;;;;;11.30;99.90;;;;;;4978487;28;19922;-68
2022/11/07 08:53:00;;;;;;;;;;;11.30;99.90;;;;;;4923165;28;208224;-68
2022/11/07 08:55:26;;;;;;;;;;;11.30;99.90;;;;;;4975436;28;19984;-67
2022/11/07 08:58:02;;;;;;;;;;;11.30;99.90;;;;;;4946697;28;213912;-68
2022/11/07 09:00:28;;;;;;;;;;;11.40;99.90;;;;;;4978433;28;19926;-68
2022/11/07 09:02:54;;;;;;;;;;;11.50;99.90;;;;;;4945173;28;185615;-67
2022/11/07 09:05:20;;;;;;;;;;;11.50;99.90;;;;;;4978248;28;19937;-68
2022/11/07 09:07:46;;;;;;;;;;;11.50;99.90;;;;;;4947488;28;207571;-68
2022/11/07 09:10:12;;;;;;;;;;;11.50;99.90;;;;;;4978605;28;20025;-68
2022/11/07 09:12:45;;;;;;;;;;;11.60;99.90;;;;;;4923194;28;103946;-68
2022/11/07 09:15:11;;;;;;;;;;;11.60;99.90;;;;;;4951070;28;19930;-67
2022/11/07 09:17:37;;;;;;;;;;;11.60;99.90;;;;;;4936231;28;210146;-67
2022/11/07 09:20:03;;;;;;;;;;;11.60;99.90;;;;;;4975934;28;19930;-68
2022/11/07 09:22:30;;;;;;;;;;;11.60;99.90;;;;;;4942014;28;232562;-68
2022/11/07 09:24:55;;;;;;;;;;;11.70;99.90;;;;;;4974337;28;19953;-68
2022/11/07 09:27:21;;;;;;;;;;;11.60;99.90;;;;;;4941533;28;207630;-68
2022/11/07 09:29:47;;;;;;;;;;;11.70;99.90;;;;;;4984233;28;20407;-68
2022/11/07 09:32:13;;;;;;;;;;;11.70;99.90;;;;;;4945187;28;210066;-68
2022/11/07 09:34:39;;;;;;;;;;;11.60;99.90;;;;;;4999729;28;19926;-68
2022/11/07 09:37:05;;;;;;;;;;;11.70;99.90;;;;;;4944261;28;166784;-68
2022/11/07 09:39:31;;;;;;;;;;;11.70;99.90;;;;;;4969357;28;20381;-69
2022/11/07 09:42:02;;;;;;;;;;;11.70;99.90;;;;;;4922148;28;209939;-69
2022/11/07 09:44:47;;;;;;;;;;;11.70;99.90;;;;;;4975048;28;19926;-69
2022/11/07 09:47:23;;;;;;;;;;;11.70;99.90;;;;;;4930358;28;145154;-68
2022/11/07 09:49:51;;;;;;;;;;;11.70;99.90;;;;;;4985895;28;19937;-69
2022/11/07 09:52:16;;;;;;;;;;;11.70;99.90;;;;;;4954098;28;155113;-68
2022/11/07 09:54:49;;;;;;;;;;;11.80;99.90;;;;;;4991785;28;19925;-68
2022/11/07 09:57:16;;;;;;;;;;;11.80;99.90;;;;;;4930211;28;208194;-69
2022/11/07 09:59:54;;;;;;;;;;;11.80;99.90;;;;;;4951373;28;19945;-69
2022/11/07 10:02:22;;;;;;;;;;;11.90;99.90;;;;;;4917551;28;208782;-68
2022/11/07 10:04:51;;;;;;;;;;;11.90;99.90;;;;;;4980664;28;20300;-69
2022/11/07 10:07:32;;;;;;;;;;;11.90;99.90;;;;;;4942919;28;203018;-69
2022/11/07 10:09:58;;;;;;;;;;;11.90;99.90;;;;;;4986191;28;19926;-68
2022/11/07 10:12:42;;;;;;;;;;;12.00;99.90;;;;;;4950134;28;215220;-69
2022/11/07 10:15:12;;;;;;;;;;;11.90;99.90;;;;;;4985977;28;19922;-69
2022/11/07 10:17:45;;;;;;;;;;;12.00;99.90;;;;;;4951997;28;218422;-69
2022/11/07 10:20:23;;;;;;;;;;;12.10;99.90;;;;;;4981559;28;19933;-68
2022/11/07 10:22:52;;;;;;;;;;;12.10;99.90;;;;;;4960417;28;207556;-68
2022/11/07 10:25:20;;;;;;;;;;;12.20;99.90;;;;;;4978524;28;19937;-69
2022/11/07 10:27:49;;;;;;;;;;;12.30;99.90;;;;;;4949256;28;203871;-69
2022/11/07 10:30:17;;;;;;;;;;;12.40;99.90;;;;;;4977446;28;19937;-69
2022/11/07 10:33:05;;;;;;;;;;;12.40;99.90;;;;;;4956024;28;206451;-69
2022/11/07 10:35:32;;;;;;;;;;;12.50;99.90;;;;;;4977214;28;19922;-69
2022/11/07 10:38:00;;;;;;;;;;;12.60;99.90;;;;;;4958559;28;211043;-69
2022/11/07 10:40:37;;;;;;;;;;;12.60;99.90;;;;;;4980893;28;19922;-69
2022/11/07 10:43:06;;;;;;;;;;;12.60;99.90;;;;;;4951551;28;206259;-68
2022/11/07 10:45:32;;;;;;;;;;;12.70;99.90;;;;;;4974073;28;20419;-69
2022/11/07 10:48:01;;;;;;;;;;;12.80;99.90;;;;;;4935218;28;212553;-69
2022/11/07 10:50:28;;;;;;;;;;;12.70;99.90;;;;;;4947961;28;19927;-68
2022/11/07 10:52:55;;;;;;;;;;;12.80;99.90;;;;;;4962083;28;142893;-68
2022/11/07 10:55:22;;;;;;;;;;;12.80;99.90;;;;;;4975299;28;19933;-68
2022/11/07 10:57:58;;;;;;;;;;;12.80;99.90;;;;;;4958318;28;213122;-68
2022/11/07 11:00:31;;;;;;;;;;;12.80;99.90;;;;;;4982671;28;20334;-68
2022/11/07 11:02:57;;;;;;;;;;;12.90;99.90;;;;;;4944766;28;137154;-69
2022/11/07 11:05:23;;;;;;;;;;;12.90;99.90;;;;;;4975199;28;19990;-68
2022/11/07 11:07:49;;;;;;;;;;;12.90;99.90;;;;;;4954489;28;197507;-69
2022/11/07 11:10:36;;;;;;;;;;;13.00;99.90;;;;;;4974746;28;19922;-69
2022/11/07 11:13:02;;;;;;;;;;;13.00;99.90;;;;;;4961796;28;227900;-69
2022/11/07 11:15:28;;;;;;;;;;;13.10;99.90;;;;;;4974656;28;19922;-70
2022/11/07 11:18:05;;;;;;;;;;;13.10;99.90;;;;;;4970163;28;89031;-71
2022/11/07 11:20:38;;;;;;;;;;;13.10;99.90;;;;;;4970112;28;19930;-71
2022/11/07 11:23:06;;;;;;;;;;;13.20;99.90;;;;;;4946065;28;207033;-71
2022/11/07 11:25:41;;;;;;;;;;;13.10;99.90;;;;;;5001917;28;19922;-69
2022/11/07 11:28:09;;;;;;;;;;;13.10;99.90;;;;;;4944376;28;161808;-70
2022/11/07 11:30:35;;;;;;;;;;;13.10;99.90;;;;;;4970844;28;20354;-70
2022/11/07 11:33:10;;;;;;;;;;;13.10;99.90;;;;;;4927626;28;206296;-71
2022/11/07 11:35:41;;;;;;;;;;;13.20;99.90;;;;;;4958060;28;19938;-71
2022/11/07 11:38:12;;;;;;;;;;;13.20;99.90;;;;;;4939297;28;207502;-71
2022/11/07 11:40:40;;;;;;;;;;;13.20;99.90;;;;;;4999107;28;19947;-71
2022/11/07 11:43:15;;;;;;;;;;;13.30;99.90;;;;;;4945400;28;211578;-71
2022/11/07 11:45:48;;;;;;;;;;;13.30;99.90;;;;;;5002163;28;19926;-70
2022/11/07 11:48:14;;;;;;;;;;;13.40;99.90;;;;;;4945347;28;160871;-70
2022/11/07 11:50:43;;;;;;;;;;;13.60;99.90;;;;;;4950546;28;20680;-71
2022/11/07 11:53:14;;;;;;;;;;;13.70;99.90;;;;;;4938797;28;106076;-71
2022/11/07 11:55:44;;;;;;;;;;;13.80;99.90;;;;;;4949156;28;20315;-71
2022/11/07 11:58:22;;;;;;;;;;;13.70;99.90;;;;;;4933895;28;206680;-70
2022/11/07 12:00:54;;;;;;;;;;;13.70;99.90;;;;;;4949422;28;19927;-70
2022/11/07 12:03:33;;;;;;;;;;;13.90;99.90;;;;;;4953471;28;205533;-69
2022/11/07 12:06:25;;;;;;;;;;;14.10;99.90;;;;;;5004990;28;19921;-69
2022/11/07 12:09:10;;;;;;;;;;;14.20;99.90;;;;;;4918553;28;185142;-69
2022/11/07 12:11:42;;;;;;;;;;;15.10;99.90;;;;;;4928648;28;207361;-70
2022/11/07 12:14:17;;;;;;;;;;;15.10;99.90;;;;;;4974241;28;19938;-69
2022/11/07 12:16:46;;;;;;;;;;;14.80;99.90;;;;;;4925967;28;172623;-70
2022/11/07 12:19:33;;;;;;;;;;;14.50;99.90;;;;;;4976724;28;19952;-70
2022/11/07 12:21:59;;;;;;;;;;;14.30;99.90;;;;;;4926149;28;206411;-70
2022/11/07 12:24:34;;;;;;;;;;;14.30;99.90;;;;;;4991781;28;19922;-69
2022/11/07 12:27:00;;;;;;;;;;;14.30;99.90;;;;;;4960876;28;189700;-70
2022/11/07 12:29:44;;;;;;;;;;;14.40;99.90;;;;;;4994340;28;19969;-70
2022/11/07 12:32:13;;;;;;;;;;;14.50;99.90;;;;;;4929724;28;209962;-70
2022/11/07 12:34:39;;;;;;;;;;;14.60;99.90;;;;;;4966377;28;19926;-70
2022/11/07 12:37:16;;;;;;;;;;;14.60;99.90;;;;;;4922555;28;207282;-70
2022/11/07 12:39:57;;;;;;;;;;;14.50;99.90;;;;;;4997060;28;19926;-70
2022/11/07 12:42:30;;;;;;;;;;;14.50;99.90;;;;;;4945539;28;209854;-71
2022/11/07 12:45:05;;;;;;;;;;;14.60;99.90;;;;;;5006986;28;20723;-69
2022/11/07 12:47:42;;;;;;;;;;;15.10;99.90;;;;;;4960341;28;189911;-71
2022/11/07 12:50:20;;;;;;;;;;;15.30;99.90;;;;;;4979206;28;19930;-70
2022/11/07 12:52:53;;;;;;;;;;;15.10;99.90;;;;;;4939529;28;207563;-70
2022/11/07 12:55:37;;;;;;;;;;;14.80;99.90;;;;;;4962422;28;19929;-70
2022/11/07 12:58:04;;;;;;;;;;;14.80;99.90;;;;;;4947269;28;207594;-70
2022/11/07 13:00:30;;;;;;;;;;;14.60;99.90;;;;;;4976759;28;20445;-69
2022/11/07 13:03:05;;;;;;;;;;;14.40;99.90;;;;;;4923630;28;207428;-70
2022/11/07 13:05:50;;;;;;;;;;;14.30;99.90;;;;;;4972781;28;19928;-69
2022/11/07 13:08:24;;;;;;;;;;;14.10;99.90;;;;;;4962171;28;220436;-69
2022/11/07 13:11:06;;;;;;;;;;;14.00;99.90;;;;;;4970016;28;19926;-70
2022/11/07 13:13:44;;;;;;;;;;;14.00;99.90;;;;;;4965300;28;205670;-70
2022/11/07 13:16:30;;;;;;;;;;;14.10;99.90;;;;;;4975017;28;19933;-70
2022/11/07 13:19:07;;;;;;;;;;;14.10;99.90;;;;;;4933757;28;203683;-69
2022/11/07 13:21:42;;;;;;;;;;;14.00;99.90;;;;;;4937922;28;212500;-70
2022/11/07 13:24:19;;;;;;;;;;;14.00;99.90;;;;;;4980312;28;19929;-69
2022/11/07 13:26:45;;;;;;;;;;;14.00;99.90;;;;;;4913734;28;221862;-68
2022/11/07 13:29:30;;;;;;;;;;;14.00;99.90;;;;;;4991628;28;19934;-69
2022/11/07 13:32:14;;;;;;;;;;;14.00;99.90;;;;;;4946381;28;146532;-69
2022/11/07 13:34:46;;;;;;;;;;;13.90;99.90;;;;;;4981790;28;19933;-69
2022/11/07 13:37:16;;;;;;;;;;;13.90;99.90;;;;;;4959871;28;182815;-70
2022/11/07 13:39:43;;;;;;;;;;;13.90;99.90;;;;;;4984336;28;19922;-70
2022/11/07 13:42:13;;;;;;;;;;;13.90;99.90;;;;;;4947723;28;205049;-69
2022/11/07 13:44:39;;;;;;;;;;;13.90;99.90;;;;;;4972704;28;19928;-70
2022/11/07 13:47:10;;;;;;;;;;;13.90;99.90;;;;;;4930075;28;207050;-70
2022/11/07 13:49:39;;;;;;;;;;;13.90;99.90;;;;;;5002608;28;19934;-70
2022/11/07 13:52:09;;;;;;;;;;;13.90;99.90;;;;;;4974184;28;98293;-70
2022/11/07 13:54:38;;;;;;;;;;;13.90;99.90;;;;;;4989131;28;19930;-71
2022/11/07 13:57:14;;;;;;;;;;;13.90;99.90;;;;;;4936971;28;120987;-70
2022/11/07 13:59:43;;;;;;;;;;;13.90;99.90;;;;;;4958742;28;19927;-69
2022/11/07 14:02:19;;;;;;;;;;;13.80;99.90;;;;;;4921936;28;211138;-70
2022/11/07 14:04:50;;;;;;;;;;;13.80;99.90;;;;;;4966196;28;19935;-70
2022/11/07 14:07:16;;;;;;;;;;;13.80;99.90;;;;;;4945510;28;188861;-68
2022/11/07 14:09:43;;;;;;;;;;;13.70;99.90;;;;;;4972169;28;19934;-68
2022/11/07 14:12:18;;;;;;;;;;;13.70;99.90;;;;;;4932041;28;207233;-68
2022/11/07 14:14:46;;;;;;;;;;;13.70;99.90;;;;;;4974078;28;20512;-69
2022/11/07 14:17:13;;;;;;;;;;;13.60;99.90;;;;;;4913371;28;120129;-68
2022/11/07 14:19:39;;;;;;;;;;;13.60;99.90;;;;;;4973068;28;19926;-69
2022/11/07 14:22:19;;;;;;;;;;;13.60;99.90;;;;;;4945675;28;204822;-69
2022/11/07 14:24:49;;;;;;;;;;;13.60;99.90;;;;;;4973314;28;19952;-70
2022/11/07 14:27:15;;;;;;;;;;;13.60;99.90;;;;;;4960954;28;206243;-69
2022/11/07 14:29:51;;;;;;;;;;;13.60;99.90;;;;;;4978860;28;19934;-69